Time;durP1;ratioP1;P1;durP2;ratioP2;P2;SDS_P1;SDS_P2;PMS_P1;PMS_P2;Temp;Humidity;BMP_temperature;BMP_pressure;BME280_temperature;BME280_humidity;BME280_pressure;Samples;Min_cycle;Max_cycle;Signal;HPM_P1;HPM_P2
2023/02/15 00:16:48;;;;;;;49.05;21.13;;;;;;;;;;6142112;23;20056;-56
2023/02/15 00:19:22;;;;;;;50.35;22.08;;;;;;;;;;6146176;23;20034;-63
2023/02/15 00:21:49;;;;;;;52.35;22.63;;;;;;;;;;6147013;23;20274;-60
2023/02/15 00:24:23;;;;;;;56.45;23.30;;;;;;;;;;6145324;23;20041;-61
2023/02/15 00:26:51;;;;;;;55.92;23.60;;;;;;;;;;6146570;23;20109;-60
2023/02/15 00:29:19;;;;;;;54.83;24.60;;;;;;;;;;6147696;23;20104;-61
2023/02/15 00:31:53;;;;;;;55.33;23.55;;;;;;;;;;6146583;23;20032;-61
2023/02/15 00:34:22;;;;;;;57.42;24.67;;;;;;;;;;6144725;23;20061;-60
2023/02/15 00:36:49;;;;;;;50.00;22.60;;;;;;;;;;6146124;23;20064;-60
2023/02/15 00:39:23;;;;;;;56.10;23.45;;;;;;;;;;6147134;23;20084;-60
2023/02/15 00:41:51;;;;;;;50.47;24.00;;;;;;;;;;6148362;23;20522;-60
2023/02/15 00:44:25;;;;;;;59.22;24.65;;;;;;;;;;6148878;23;20021;-61
2023/02/15 00:46:52;;;;;;;49.65;23.40;;;;;;;;;;6148171;23;20092;-60
2023/02/15 00:49:19;;;;;;;47.88;22.17;;;;;;;;;;6148668;23;20328;-60
2023/02/15 00:51:52;;;;;;;49.88;22.23;;;;;;;;;;6148628;23;20104;-61
2023/02/15 00:54:20;;;;;;;54.10;24.33;;;;;;;;;;6148473;23;20031;-60
2023/02/15 00:56:54;;;;;;;53.15;23.30;;;;;;;;;;6147347;23;20033;-63
2023/02/15 00:59:21;;;;;;;52.97;22.73;;;;;;;;;;6148639;23;20061;-61
2023/02/15 01:01:48;;;;;;;53.17;23.42;;;;;;;;;;6148344;23;20118;-60
2023/02/15 01:07:47;;;;;;;52.67;23.35;;;;;;;;;;6126706;23;20455;-61
2023/02/15 01:10:22;;;;;;;59.75;24.25;;;;;;;;;;6170746;23;20025;-61
2023/02/15 01:12:50;;;;;;;57.70;24.48;;;;;;;;;;6177599;23;20029;-61
2023/02/15 01:15:17;;;;;;;59.20;22.80;;;;;;;;;;6177443;23;20021;-61
2023/02/15 01:17:52;;;;;;;60.55;24.00;;;;;;;;;;6178143;23;20021;-61
2023/02/15 01:20:20;;;;;;;56.97;23.75;;;;;;;;;;6177674;23;20099;-61
2023/02/15 01:22:55;;;;;;;59.90;23.20;;;;;;;;;;6178695;23;20056;-58
2023/02/15 01:25:24;;;;;;;57.47;24.80;;;;;;;;;;6178147;23;20045;-61
2023/02/15 01:27:58;;;;;;;60.28;23.13;;;;;;;;;;6177966;23;20055;-61
2023/02/15 01:30:25;;;;;;;57.95;23.63;;;;;;;;;;6177619;23;20100;-61
2023/02/15 01:32:52;;;;;;;56.13;21.98;;;;;;;;;;6177449;23;20450;-61
2023/02/15 01:35:27;;;;;;;54.63;23.73;;;;;;;;;;6179292;23;20507;-61
2023/02/15 01:37:55;;;;;;;52.38;22.17;;;;;;;;;;6176820;23;20103;-61
2023/02/15 01:40:29;;;;;;;55.55;23.17;;;;;;;;;;6176526;23;20025;-63
2023/02/15 01:42:56;;;;;;;;;;;;;;;;;;6178044;23;20025;-69
2023/02/15 01:45:28;;;;;;;49.50;20.38;;;;;;;;;;6178637;23;19991;-70
2023/02/15 01:48:11;;;;;;;63.38;23.08;;;;;;;;;;6177812;23;20052;-68
2023/02/15 01:50:42;;;;;;;55.83;22.27;;;;;;;;;;6178140;23;20023;-71
2023/02/15 01:53:22;;;;;;;52.30;22.63;;;;;;;;;;6177746;23;20028;-71
2023/02/15 01:55:52;;;;;;;57.97;23.27;;;;;;;;;;6177953;23;20510;-70
2023/02/15 01:58:31;;;;;;;52.50;22.45;;;;;;;;;;6178138;23;20065;-65
2023/02/15 02:01:00;;;;;;;53.45;22.00;;;;;;;;;;6177585;23;20052;-62
2023/02/15 02:03:36;;;;;;;57.33;22.83;;;;;;;;;;6177973;23;20803;-61
2023/02/15 02:06:04;;;;;;;55.42;23.10;;;;;;;;;;6176866;23;20753;-61
2023/02/15 02:08:45;;;;;;;51.70;21.27;;;;;;;;;;6176938;23;20449;-61
2023/02/15 02:11:12;;;;;;;52.92;21.50;;;;;;;;;;6178650;23;20057;-57
2023/02/15 02:13:47;;;;;;;53.00;22.52;;;;;;;;;;6175921;23;20063;-56
2023/02/15 02:16:18;;;;;;;57.38;22.48;;;;;;;;;;6179205;23;20045;-57
2023/02/15 02:19:00;;;;;;;61.72;23.58;;;;;;;;;;6177034;23;20029;-53
2023/02/15 02:21:48;;;;;;;60.22;23.40;;;;;;;;;;6177738;23;20346;-55
2023/02/15 02:24:24;;;;;;;58.88;21.48;;;;;;;;;;6178903;23;20029;-57
2023/02/15 02:27:13;;;;;;;60.92;22.55;;;;;;;;;;6177546;23;20021;-70
2023/02/15 02:29:43;;;;;;;55.22;22.40;;;;;;;;;;6176837;23;20072;-69
2023/02/15 02:32:19;;;;;;;63.13;23.77;;;;;;;;;;6178479;23;20025;-69
2023/02/15 02:34:51;;;;;;;55.67;21.67;;;;;;;;;;6176056;23;20027;-70
2023/02/15 02:37:29;;;;;;;61.50;21.50;;;;;;;;;;6177574;23;20358;-59
2023/02/15 02:40:08;;;;;;;56.08;21.75;;;;;;;;;;6176361;23;20343;-70
2023/02/15 02:42:43;;;;;;;59.58;22.63;;;;;;;;;;6177358;23;20031;-47
2023/02/15 02:45:17;;;;;;;57.58;22.20;;;;;;;;;;6177422;23;20028;-48
2023/02/15 02:47:53;;;;;;;57.70;21.88;;;;;;;;;;6177574;23;20064;-48
2023/02/15 02:50:28;;;;;;;55.53;22.00;;;;;;;;;;6178564;23;20505;-48
2023/02/15 02:53:02;;;;;;;57.58;22.30;;;;;;;;;;6177125;23;20025;-51
2023/02/15 02:55:41;;;;;;;55.78;21.92;;;;;;;;;;6178581;23;20028;-52
2023/02/15 02:58:22;;;;;;;55.22;20.95;;;;;;;;;;6176770;23;20021;-59
2023/02/15 03:00:58;;;;;;;51.53;21.08;;;;;;;;;;6176657;23;20027;-52
2023/02/15 03:03:36;;;;;;;60.05;21.30;;;;;;;;;;6175026;23;20044;-48
2023/02/15 03:06:17;;;;;;;56.90;22.58;;;;;;;;;;6177478;23;20104;-49
2023/02/15 03:09:00;;;;;;;51.63;19.90;;;;;;;;;;6177063;23;20096;-49
2023/02/15 03:11:27;;;;;;;53.17;20.77;;;;;;;;;;6177564;23;20067;-49
2023/02/15 03:14:01;;;;;;;53.20;21.05;;;;;;;;;;6178833;23;20053;-69
2023/02/15 03:16:35;;;;;;;56.25;21.17;;;;;;;;;;6177485;23;20035;-70
2023/02/15 03:19:07;;;;;;;58.55;21.13;;;;;;;;;;6176861;23;20036;-67
2023/02/15 03:21:40;;;;;;;59.95;20.95;;;;;;;;;;6176685;23;20045;-70
2023/02/15 03:24:10;;;;;;;56.10;22.20;;;;;;;;;;6176768;23;20529;-70
2023/02/15 03:26:46;;;;;;;54.60;20.10;;;;;;;;;;6177732;23;20051;-48
2023/02/15 03:29:13;;;;;;;54.28;21.40;;;;;;;;;;6175896;23;20032;-63
2023/02/15 03:31:50;;;;;;;67.90;21.95;;;;;;;;;;6177021;23;20402;-63
2023/02/15 03:34:18;;;;;;;51.92;20.25;;;;;;;;;;6177679;23;20021;-63
2023/02/15 03:36:54;;;;;;;60.80;22.63;;;;;;;;;;6176333;23;20096;-63
2023/02/15 03:39:22;;;;;;;52.83;20.65;;;;;;;;;;6177705;23;20064;-63
2023/02/15 03:41:52;;;;;;;59.13;23.00;;;;;;;;;;6175836;23;20107;-63
2023/02/15 03:44:28;;;;;;;61.25;22.27;;;;;;;;;;6175853;23;20084;-58
2023/02/15 03:46:59;;;;;;;59.80;22.42;;;;;;;;;;6177405;23;20049;-56
2023/02/15 03:49:49;;;;;;;59.13;22.65;;;;;;;;;;6177596;23;20021;-59
2023/02/15 03:52:17;;;;;;;59.45;21.85;;;;;;;;;;6176495;23;20017;-59
2023/02/15 03:54:51;;;;;;;55.42;22.98;;;;;;;;;;6176911;23;20031;-71
2023/02/15 04:03:17;;;;;;;61.22;20.95;;;;;;;;;;6176147;23;20067;-71
2023/02/15 04:05:51;;;;;;;57.83;22.48;;;;;;;;;;6176567;23;20032;-70
2023/02/15 04:08:18;;;;;;;59.20;22.50;;;;;;;;;;6175641;23;20025;-70
2023/02/15 04:10:58;;;;;;;62.25;22.83;;;;;;;;;;6176144;23;20095;-59
2023/02/15 04:13:32;;;;;;;51.47;21.00;;;;;;;;;;6177750;23;20395;-59
2023/02/15 04:16:06;;;;;;;60.35;22.15;;;;;;;;;;6179022;23;20024;-59
2023/02/15 04:27:10;;;;;;;58.45;23.75;;;;;;;;;;6179353;23;20025;-57
2023/02/15 04:29:37;;;;;;;64.45;22.75;;;;;;;;;;6179851;23;20049;-59
2023/02/15 04:32:11;;;;;;;64.28;23.20;;;;;;;;;;6178156;23;20032;-60
2023/02/15 04:34:38;;;;;;;64.32;24.25;;;;;;;;;;6177141;23;20477;-58
2023/02/15 04:37:12;;;;;;;59.80;21.75;;;;;;;;;;6176425;23;20029;-59
2023/02/15 04:39:39;;;;;;;68.43;22.98;;;;;;;;;;6178777;23;20423;-55
2023/02/15 04:42:06;;;;;;;68.30;23.63;;;;;;;;;;6179174;23;20079;-47
2023/02/15 04:44:40;;;;;;;63.83;23.80;;;;;;;;;;6179205;23;20025;-59
2023/02/15 04:47:07;;;;;;;61.20;23.08;;;;;;;;;;6177432;23;20361;-58
2023/02/15 04:49:34;;;;;;;73.32;24.48;;;;;;;;;;6178552;23;20100;-58
2023/02/15 04:52:07;;;;;;;66.22;23.10;;;;;;;;;;6177953;23;20017;-59
2023/02/15 04:54:35;;;;;;;69.70;24.23;;;;;;;;;;6177578;23;20100;-59
2023/02/15 04:57:09;;;;;;;63.17;23.23;;;;;;;;;;6177916;23;20077;-57
2023/02/15 04:59:36;;;;;;;68.30;23.48;;;;;;;;;;6179249;23;20025;-59
2023/02/15 05:02:03;;;;;;;68.20;23.92;;;;;;;;;;6179325;23;20021;-57
2023/02/15 05:04:37;;;;;;;69.10;23.23;;;;;;;;;;6177754;23;20028;-56
2023/02/15 05:07:04;;;;;;;67.28;22.70;;;;;;;;;;6177837;23;20031;-59
2023/02/15 05:09:44;;;;;;;64.68;22.02;;;;;;;;;;6178966;23;20044;-63
2023/02/15 05:12:11;;;;;;;67.13;22.70;;;;;;;;;;6180133;23;20075;-48
2023/02/15 05:14:46;;;;;;;68.35;22.55;;;;;;;;;;6179326;23;20414;-48
2023/02/15 05:17:13;;;;;;;62.70;22.85;;;;;;;;;;6178621;23;20021;-51
2023/02/15 05:19:40;;;;;;;67.80;22.42;;;;;;;;;;6178907;23;20029;-49
2023/02/15 05:22:14;;;;;;;64.50;23.52;;;;;;;;;;6178593;23;20052;-48
2023/02/15 05:30:19;;;;;;;69.00;24.95;;;;;;;;;;6176994;23;20522;-63
2023/02/15 05:32:54;;;;;;;67.32;22.42;;;;;;;;;;6179557;23;20021;-63
2023/02/15 05:35:21;;;;;;;64.65;23.55;;;;;;;;;;6177358;23;20025;-63
2023/02/15 05:37:55;;;;;;;73.72;26.70;;;;;;;;;;6177584;23;20100;-60
2023/02/15 05:40:22;;;;;;;74.75;26.42;;;;;;;;;;6175885;23;20065;-58
2023/02/15 05:42:49;;;;;;;70.63;25.33;;;;;;;;;;6174624;23;20702;-56
2023/02/15 05:45:23;;;;;;;73.05;26.20;;;;;;;;;;6176257;23;20416;-58
2023/02/15 05:47:50;;;;;;;72.25;25.38;;;;;;;;;;6176051;23;20025;-56
2023/02/15 05:50:24;;;;;;;71.93;25.13;;;;;;;;;;6175069;23;20024;-59
2023/02/15 05:52:51;;;;;;;75.78;25.20;;;;;;;;;;6171480;23;20120;-60
2023/02/15 05:55:18;;;;;;;69.72;26.42;;;;;;;;;;6175312;23;20024;-57
2023/02/15 05:57:53;;;;;;;70.53;25.48;;;;;;;;;;6176231;23;20458;-56
2023/02/15 06:00:20;;;;;;;65.90;23.67;;;;;;;;;;6179194;23;20577;-57
2023/02/15 06:02:47;;;;;;;64.80;24.48;;;;;;;;;;6176525;23;20092;-57
2023/02/15 06:05:21;;;;;;;72.65;25.23;;;;;;;;;;6177995;23;20060;-57
2023/02/15 06:07:48;;;;;;;79.00;27.25;;;;;;;;;;6178540;23;20104;-69
2023/02/15 06:10:21;;;;;;;71.18;26.98;;;;;;;;;;6175468;23;20100;-59
2023/02/15 06:13:01;;;;;;;74.25;27.00;;;;;;;;;;6176599;23;20104;-57
2023/02/15 06:15:29;;;;;;;70.18;26.42;;;;;;;;;;6178101;23;20063;-59
2023/02/15 06:18:03;;;;;;;70.40;25.75;;;;;;;;;;6178826;23;20021;-59
2023/02/15 06:20:30;;;;;;;78.50;27.20;;;;;;;;;;6178087;23;20640;-59
2023/02/15 06:22:57;;;;;;;72.57;26.27;;;;;;;;;;6178747;23;20064;-59
2023/02/15 06:25:31;;;;;;;66.28;27.13;;;;;;;;;;6177609;23;20060;-58
2023/02/15 06:27:58;;;;;;;78.22;27.88;;;;;;;;;;6175903;23;20025;-58
2023/02/15 06:30:32;;;;;;;74.90;27.63;;;;;;;;;;6177914;23;20143;-60
2023/02/15 06:32:59;;;;;;;62.72;25.33;;;;;;;;;;6177303;23;20051;-58
2023/02/15 06:35:26;;;;;;;70.25;25.35;;;;;;;;;;6179020;23;20059;-60
2023/02/15 06:37:59;;;;;;;72.60;27.10;;;;;;;;;;6178189;23;20425;-58
2023/02/15 06:40:27;;;;;;;70.70;26.30;;;;;;;;;;6151974;23;20119;-58
2023/02/15 06:43:01;;;;;;;71.55;26.20;;;;;;;;;;6177628;23;20021;-60
2023/02/15 06:45:28;;;;;;;76.05;28.15;;;;;;;;;;6178470;23;20067;-59
2023/02/15 06:47:55;;;;;;;72.97;26.92;;;;;;;;;;6176724;23;20036;-59
2023/02/15 06:50:29;;;;;;;75.93;27.20;;;;;;;;;;6154088;23;20053;-60
2023/02/15 06:52:57;;;;;;;68.07;26.38;;;;;;;;;;6178316;23;20117;-63
2023/02/15 06:55:31;;;;;;;68.80;25.35;;;;;;;;;;6176797;23;20095;-63
2023/02/15 06:57:58;;;;;;;72.10;27.17;;;;;;;;;;6177761;23;20544;-64
2023/02/15 07:00:25;;;;;;;77.80;27.38;;;;;;;;;;6178944;23;20269;-63
2023/02/15 07:02:59;;;;;;;76.25;27.13;;;;;;;;;;6177052;23;20025;-61
2023/02/15 07:05:30;;;;;;;79.03;25.83;;;;;;;;;;6178030;23;20053;-62
2023/02/15 07:08:17;;;;;;;79.57;26.95;;;;;;;;;;6177711;23;20027;-61
2023/02/15 07:13:56;;;;;;;76.55;27.88;;;;;;;;;;6177266;23;20020;-61
2023/02/15 07:16:23;;;;;;;75.07;27.63;;;;;;;;;;6178415;23;20063;-61
2023/02/15 07:18:50;;;;;;;79.65;26.92;;;;;;;;;;6176210;23;20032;-61
2023/02/15 07:21:25;;;;;;;76.85;26.02;;;;;;;;;;6178805;23;20067;-59
2023/02/15 07:23:52;;;;;;;78.97;28.73;;;;;;;;;;6176296;23;20426;-58
2023/02/15 07:26:26;;;;;;;76.47;26.92;;;;;;;;;;6177852;23;20021;-60
2023/02/15 07:28:53;;;;;;;83.88;27.60;;;;;;;;;;6177294;23;20104;-58
2023/02/15 07:31:20;;;;;;;72.90;26.73;;;;;;;;;;6177801;23;20056;-59
2023/02/15 07:33:54;;;;;;;72.22;25.40;;;;;;;;;;6177076;23;20390;-61
2023/02/15 07:36:21;;;;;;;74.28;26.17;;;;;;;;;;6178469;23;20108;-62
2023/02/15 07:39:07;;;;;;;71.80;25.95;;;;;;;;;;6176430;23;20035;-61
2023/02/15 07:41:34;;;;;;;74.43;26.25;;;;;;;;;;6177745;23;20023;-61
2023/02/15 07:44:13;;;;;;;69.53;24.95;;;;;;;;;;6178057;23;20035;-61
2023/02/15 07:46:40;;;;;;;69.93;24.55;;;;;;;;;;6177848;23;20017;-61
2023/02/15 07:49:08;;;;;;;75.85;25.83;;;;;;;;;;6177264;23;20027;-57
2023/02/15 07:51:42;;;;;;;74.05;26.52;;;;;;;;;;6178159;23;20100;-58
2023/02/15 07:54:09;;;;;;;72.43;24.42;;;;;;;;;;6175490;23;20525;-58
2023/02/15 07:56:36;;;;;;;73.35;25.40;;;;;;;;;;6178163;23;20109;-58
2023/02/15 07:59:10;;;;;;;72.10;25.40;;;;;;;;;;6176813;23;20350;-57
2023/02/15 08:01:38;;;;;;;73.00;24.70;;;;;;;;;;6176899;23;20561;-70
2023/02/15 08:04:12;;;;;;;69.82;25.25;;;;;;;;;;6177558;23;20024;-63
2023/02/15 08:06:39;;;;;;;80.18;25.52;;;;;;;;;;6177616;23;20059;-63
2023/02/15 08:09:25;;;;;;;79.80;26.48;;;;;;;;;;6175256;23;20033;-63
2023/02/15 08:11:59;;;;;;;75.88;25.75;;;;;;;;;;6177463;23;20537;-63
2023/02/15 08:14:34;;;;;;;69.10;25.63;;;;;;;;;;6176963;23;20327;-63
2023/02/15 08:17:04;;;;;;;70.85;24.40;;;;;;;;;;6177893;23;20029;-70
2023/02/15 08:19:34;;;;;;;81.53;27.38;;;;;;;;;;6176691;23;20109;-68
2023/02/15 08:22:12;;;;;;;71.65;25.13;;;;;;;;;;6177259;23;20025;-69
2023/02/15 08:24:39;;;;;;;71.53;23.85;;;;;;;;;;6177396;23;20079;-70
2023/02/15 08:27:13;;;;;;;61.05;21.90;;;;;;;;;;6177283;23;20100;-59
2023/02/15 08:29:41;;;;;;;69.13;24.40;;;;;;;;;;6177728;23;20028;-70
2023/02/15 08:32:10;;;;;;;66.93;25.45;;;;;;;;;;6176622;23;20047;-69
2023/02/15 08:34:44;;;;;;;65.60;25.20;;;;;;;;;;6177444;23;20029;-68
2023/02/15 08:37:11;;;;;;;66.60;24.40;;;;;;;;;;6177319;23;20048;-69
2023/02/15 08:39:45;;;;;;;70.95;26.25;;;;;;;;;;6177147;23;20104;-69
2023/02/15 08:42:13;;;;;;;72.35;27.00;;;;;;;;;;6177732;23;20028;-69
2023/02/15 08:44:40;;;;;;;70.82;28.70;;;;;;;;;;6177305;23;20075;-69
2023/02/15 08:47:16;;;;;;;81.00;28.85;;;;;;;;;;6177575;23;20021;-71
2023/02/15 08:49:43;;;;;;;70.05;28.20;;;;;;;;;;6177581;23;20425;-70
2023/02/15 08:52:10;;;;;;;80.85;29.77;;;;;;;;;;6177264;23;20027;-70
2023/02/15 08:54:44;;;;;;;77.97;30.60;;;;;;;;;;6177565;23;20108;-70
2023/02/15 08:57:11;;;;;;;;;;;;;;;;;;6177069;23;20366;-59
2023/02/15 08:59:38;;;;;;;77.22;28.52;;;;;;;;;;6177861;23;19916;-70
2023/02/15 09:02:12;;;;;;;74.18;28.67;;;;;;;;;;6178733;23;20017;-71
2023/02/15 09:04:39;;;;;;;79.25;28.83;;;;;;;;;;6179166;23;20025;-71
2023/02/15 09:07:13;;;;;;;79.50;31.00;;;;;;;;;;6179732;23;20028;-71
2023/02/15 09:09:52;;;;;;;87.13;32.88;;;;;;;;;;6177817;23;20053;-71
2023/02/15 09:12:27;;;;;;;85.55;31.67;;;;;;;;;;6179518;23;20056;-70
2023/02/15 09:14:54;;;;;;;81.70;30.35;;;;;;;;;;6179124;23;20048;-61
2023/02/15 09:17:21;;;;;;;78.70;30.55;;;;;;;;;;6179082;23;20100;-61
2023/02/15 09:19:55;;;;;;;78.18;30.95;;;;;;;;;;6178952;23;20031;-61
2023/02/15 09:22:22;;;;;;;79.32;31.23;;;;;;;;;;6179353;23;20049;-61
2023/02/15 09:24:56;;;;;;;81.45;30.15;;;;;;;;;;6178000;23;20031;-59
2023/02/15 09:27:23;;;;;;;82.28;31.23;;;;;;;;;;6178773;23;20051;-63
2023/02/15 09:29:50;;;;;;;73.18;29.48;;;;;;;;;;6177745;23;20538;-63
2023/02/15 09:32:24;;;;;;;72.68;29.00;;;;;;;;;;6179571;23;20017;-62
2023/02/15 09:34:51;;;;;;;74.97;29.42;;;;;;;;;;6178364;23;20056;-63
2023/02/15 09:37:25;;;;;;;78.35;29.15;;;;;;;;;;6178385;23;20474;-63
2023/02/15 09:39:52;;;;;;;76.53;28.42;;;;;;;;;;6179211;23;20017;-63
2023/02/15 09:42:34;;;;;;;72.45;29.27;;;;;;;;;;6179138;23;20466;-59
2023/02/15 09:45:32;;;;;;;77.88;28.52;;;;;;;;;;6178658;23;20060;-56
2023/02/15 09:48:22;;;;;;;75.32;27.80;;;;;;;;;;6178327;23;20021;-58
2023/02/15 09:51:01;;;;;;;80.78;28.92;;;;;;;;;;6179261;23;20103;-58
2023/02/15 09:53:32;;;;;;;64.95;26.45;;;;;;;;;;6178203;23;20036;-60
2023/02/15 09:56:10;;;;;;;66.47;25.38;;;;;;;;;;6178923;23;20092;-63
2023/02/15 09:58:48;;;;;;;71.20;28.58;;;;;;;;;;6178076;23;20025;-63
2023/02/15 10:01:34;;;;;;;73.60;27.85;;;;;;;;;;6177978;23;20029;-63
2023/02/15 10:04:21;;;;;;;75.07;27.38;;;;;;;;;;6178153;23;20084;-63
2023/02/15 10:07:13;;;;;;;79.05;28.52;;;;;;;;;;6177973;23;20029;-63
2023/02/15 10:10:06;;;;;;;69.20;27.45;;;;;;;;;;6177972;23;20024;-63
2023/02/15 10:13:01;;;;;;;70.53;26.83;;;;;;;;;;6178777;23;20084;-49
2023/02/15 10:15:28;;;;;;;;;;;;;;;;;;6178672;23;20095;-50
2023/02/15 10:18:03;;;;;;;64.20;24.55;;;;;;;;;;6178192;23;20007;-51
2023/02/15 10:20:55;;;;;;;69.50;27.00;;;;;;;;;;6177180;23;20524;-50
2023/02/15 10:23:39;;;;;;;65.63;25.20;;;;;;;;;;6178296;23;20021;-57
2023/02/15 10:26:15;;;;;;;65.43;25.77;;;;;;;;;;6178374;23;20032;-63
2023/02/15 10:28:50;;;;;;;70.25;25.58;;;;;;;;;;6177733;23;20744;-62
2023/02/15 10:31:17;;;;;;;66.75;26.00;;;;;;;;;;6177447;23;20029;-63
2023/02/15 10:33:45;;;;;;;69.60;25.92;;;;;;;;;;6178571;23;20021;-63
2023/02/15 10:36:28;;;;;;;69.03;25.55;;;;;;;;;;6177318;23;20474;-62
2023/02/15 10:39:01;;;;;;;72.32;26.25;;;;;;;;;;6178529;23;20096;-62
2023/02/15 10:41:41;;;;;;;64.07;25.20;;;;;;;;;;6177182;23;20025;-63
2023/02/15 10:44:29;;;;;;;73.63;27.85;;;;;;;;;;6177735;23;20047;-63
2023/02/15 10:47:09;;;;;;;72.20;28.13;;;;;;;;;;6176565;23;20025;-63
2023/02/15 10:49:54;;;;;;;72.78;25.95;;;;;;;;;;6177016;23;20465;-59
2023/02/15 10:52:29;;;;;;;62.88;24.70;;;;;;;;;;6178133;23;20374;-56
2023/02/15 10:55:08;;;;;;;75.60;26.42;;;;;;;;;;6178954;23;20021;-57
2023/02/15 10:57:46;;;;;;;69.68;25.45;;;;;;;;;;6178505;23;20059;-59
2023/02/15 11:00:39;;;;;;;64.72;26.83;;;;;;;;;;6177769;23;20057;-58
2023/02/15 11:03:16;;;;;;;71.47;26.95;;;;;;;;;;6157168;23;20024;-58
2023/02/15 11:05:43;;;;;;;72.13;26.67;;;;;;;;;;6178220;23;20104;-56
2023/02/15 11:08:18;;;;;;;71.35;27.27;;;;;;;;;;6177999;23;20035;-69
2023/02/15 11:10:57;;;;;;;76.75;27.52;;;;;;;;;;6177236;23;20072;-69
2023/02/15 11:13:34;;;;;;;68.43;26.48;;;;;;;;;;6176979;23;20024;-68
2023/02/15 11:16:06;;;;;;;67.95;26.63;;;;;;;;;;6179686;23;20663;-69
2023/02/15 11:18:44;;;;;;;65.53;25.67;;;;;;;;;;6176926;23;20025;-59
2023/02/15 11:21:18;;;;;;;72.20;27.08;;;;;;;;;;6178289;23;20088;-59
2023/02/15 11:23:52;;;;;;;82.57;27.05;;;;;;;;;;6177624;23;20099;-59
2023/02/15 11:26:19;;;;;;;;;;;;;;;;;;6178361;23;20458;-59
2023/02/15 11:28:49;;;;;;;72.28;24.17;;;;;;;;;;6176950;23;20006;-59
2023/02/15 11:31:24;;;;;;;73.03;25.90;;;;;;;;;;6178308;23;20056;-59
2023/02/15 11:33:54;;;;;;;72.95;26.83;;;;;;;;;;6177523;23;20366;-58
2023/02/15 11:36:29;;;;;;;71.63;26.70;;;;;;;;;;6178144;23;20128;-70
2023/02/15 11:39:03;;;;;;;75.55;27.25;;;;;;;;;;6177614;23;20835;-70
2023/02/15 11:41:39;;;;;;;67.00;24.02;;;;;;;;;;6177939;23;20088;-71
2023/02/15 11:44:15;;;;;;;76.07;27.00;;;;;;;;;;6175885;23;20442;-70
2023/02/15 11:46:49;;;;;;;69.97;26.45;;;;;;;;;;6177727;23;20618;-48
2023/02/15 11:49:18;;;;;;;;;;;;;;;;;;6178971;23;20112;-65
2023/02/15 11:51:52;;;;;;;66.80;25.45;;;;;;;;;;6177632;23;19995;-62
2023/02/15 11:54:22;;;;;;;72.85;26.20;;;;;;;;;;6176666;23;20542;-62
2023/02/15 11:56:49;;;;;;;64.70;25.73;;;;;;;;;;6177388;23;20135;-62
2023/02/15 11:59:32;;;;;;;72.80;26.08;;;;;;;;;;6176851;23;20021;-63
2023/02/15 12:02:00;;;;;;;66.57;26.17;;;;;;;;;;6177776;23;20112;-62
2023/02/15 12:04:39;;;;;;;67.28;24.80;;;;;;;;;;6176636;23;20092;-58
2023/02/15 12:07:17;;;;;;;70.00;25.35;;;;;;;;;;6178447;23;20036;-56
2023/02/15 12:10:11;;;;;;;70.40;25.80;;;;;;;;;;6176826;23;20025;-58
2023/02/15 12:12:38;;;;;;;69.55;25.85;;;;;;;;;;6176551;23;20103;-58
2023/02/15 12:15:13;;;;;;;68.45;25.63;;;;;;;;;;6177746;23;20021;-70
2023/02/15 12:17:48;;;;;;;68.40;23.85;;;;;;;;;;6176847;23;20041;-71
2023/02/15 12:20:26;;;;;;;70.07;25.80;;;;;;;;;;6176786;23;20029;-58
2023/02/15 12:23:04;;;;;;;75.85;27.15;;;;;;;;;;6174994;23;20090;-58
2023/02/15 12:25:41;;;;;;;73.60;26.58;;;;;;;;;;6177671;23;20103;-57
2023/02/15 12:28:29;;;;;;;73.88;25.63;;;;;;;;;;6178354;23;20067;-58
2023/02/15 12:31:27;;;;;;;68.97;24.60;;;;;;;;;;6172244;23;20465;-57
2023/02/15 12:33:57;;;;;;;77.47;26.65;;;;;;;;;;6177496;23;20108;-58
2023/02/15 12:36:33;;;;;;;78.82;26.00;;;;;;;;;;6178821;23;20029;-59
2023/02/15 12:39:05;;;;;;;66.38;26.42;;;;;;;;;;6179716;23;20549;-58
2023/02/15 12:41:44;;;;;;;75.35;25.73;;;;;;;;;;6179658;23;20132;-57
2023/02/15 12:44:19;;;;;;;65.13;25.00;;;;;;;;;;6178397;23;20021;-57
2023/02/15 12:47:11;;;;;;;71.03;25.17;;;;;;;;;;6178929;23;20061;-62
2023/02/15 12:49:38;;;;;;;77.20;26.08;;;;;;;;;;6179228;23;20059;-63
2023/02/15 12:52:20;;;;;;;75.00;25.10;;;;;;;;;;6180041;23;20075;-62
2023/02/15 12:54:47;;;;;;;71.05;26.25;;;;;;;;;;6178912;23;20072;-62
2023/02/15 12:57:21;;;;;;;81.20;26.42;;;;;;;;;;6177708;23;20816;-62
2023/02/15 12:59:52;;;;;;;75.85;26.85;;;;;;;;;;6178832;23;20433;-62
2023/02/15 13:02:31;;;;;;;83.75;28.33;;;;;;;;;;6179524;23;20115;-70
2023/02/15 13:05:04;;;;;;;74.57;27.95;;;;;;;;;;6179046;23;20048;-72
2023/02/15 13:07:39;;;;;;;67.30;25.20;;;;;;;;;;6179157;23;20144;-71
2023/02/15 13:10:19;;;;;;;74.57;28.48;;;;;;;;;;6178657;23;20497;-71
2023/02/15 13:12:54;;;;;;;73.20;26.52;;;;;;;;;;6177768;23;20060;-48
2023/02/15 13:15:26;;;;;;;76.75;28.92;;;;;;;;;;6180035;23;20040;-60
2023/02/15 13:18:00;;;;;;;81.85;28.13;;;;;;;;;;6179604;23;20421;-58
2023/02/15 13:20:28;;;;;;;75.95;28.48;;;;;;;;;;6177989;23;20099;-58
2023/02/15 13:23:04;;;;;;;78.45;30.48;;;;;;;;;;6178699;23;20076;-58
2023/02/15 13:25:35;;;;;;;76.05;29.70;;;;;;;;;;6180006;23;20103;-58
2023/02/15 13:28:13;;;;;;;82.53;29.90;;;;;;;;;;6179412;23;20540;-58
2023/02/15 13:30:43;;;;;;;91.63;29.95;;;;;;;;;;6178753;23;20024;-68
2023/02/15 13:33:26;;;;;;;91.75;31.08;;;;;;;;;;6178571;23;20028;-68
2023/02/15 13:36:12;;;;;;;80.60;29.42;;;;;;;;;;6177524;23;20489;-68
2023/02/15 13:38:46;;;;;;;81.70;27.77;;;;;;;;;;6178734;23;20537;-68
2023/02/15 13:41:18;;;;;;;89.43;32.13;;;;;;;;;;6178333;23;20056;-60
2023/02/15 13:43:52;;;;;;;96.15;32.22;;;;;;;;;;6176788;23;20100;-52
2023/02/15 13:46:34;;;;;;;78.47;28.65;;;;;;;;;;6151827;23;20545;-49
2023/02/15 13:49:18;;;;;;;89.35;30.98;;;;;;;;;;6178341;23;20441;-50
2023/02/15 13:51:53;;;;;;;99.13;32.53;;;;;;;;;;6178248;23;20047;-51
2023/02/15 13:54:46;;;;;;;97.93;30.23;;;;;;;;;;6178957;23;20024;-49
2023/02/15 13:57:16;;;;;;;99.40;31.98;;;;;;;;;;6179143;23;20017;-50
2023/02/15 14:00:14;;;;;;;62.97;22.70;;;;;;;;;;6178757;23;20025;-58
2023/02/15 14:02:56;;;;;;;104.40;31.40;;;;;;;;;;6177897;23;20116;-58
2023/02/15 14:05:30;;;;;;;;;;;;;;;;;;6178251;23;20059;-59
2023/02/15 14:08:00;;;;;;;99.40;29.85;;;;;;;;;;6178506;23;19967;-59
2023/02/15 14:10:56;;;;;;;94.63;30.25;;;;;;;;;;6178788;23;20100;-63
2023/02/15 14:13:43;;;;;;;95.20;30.98;;;;;;;;;;6179092;23;20064;-62
2023/02/15 14:16:17;;;;;;;97.18;31.70;;;;;;;;;;6178522;23;20025;-63
2023/02/15 14:18:44;;;;;;;;;;;;;;;;;;6178153;23;20025;-61
2023/02/15 14:21:22;;;;;;;85.85;29.40;;;;;;;;;;6177886;23;19920;-62
2023/02/15 14:23:56;;;;;;;102.32;31.40;;;;;;;;;;6178199;23;20484;-63
2023/02/15 14:26:42;;;;;;;93.25;30.42;;;;;;;;;;6177184;23;20060;-62
2023/02/15 14:29:16;;;;;;;107.93;31.25;;;;;;;;;;6177993;23;20810;-58
2023/02/15 14:31:46;;;;;;;103.55;32.20;;;;;;;;;;6179115;23;20099;-58
2023/02/15 14:34:37;;;;;;;100.32;30.02;;;;;;;;;;6177695;23;20017;-57
2023/02/15 14:37:05;;;;;;;104.60;30.65;;;;;;;;;;6178381;23;20105;-58
2023/02/15 14:42:57;;;;;;;105.07;31.80;;;;;;;;;;6155097;23;20039;-57
2023/02/15 14:45:42;;;;;;;116.10;32.22;;;;;;;;;;6177721;23;20095;-58
2023/02/15 14:48:12;;;;;;;108.63;32.65;;;;;;;;;;6178682;23;20028;-56
2023/02/15 14:50:47;;;;;;;101.18;33.40;;;;;;;;;;6177189;23;20402;-58
2023/02/15 14:53:18;;;;;;;110.28;31.67;;;;;;;;;;6178534;23;20095;-56
